Terminal Aerodrome Forecast
Issued by NWS

Home | Current Version | Previous Version | Text Only | Print | Product List | Glossary On
Versions: 1 2 3 4 5 6 7 8 9 10 11 12 13 14 15 16 17 18 19 20 21 22 23 24 25 26 27 28 29 30 31 32 33 34 35 36 37 38 39 40 41 42 43 44 45 46 47 48 49 50
488
FTUS44 KHGX 211518 AAC
TAFIAH
TAF AMD
KIAH 211518Z 2115/2218 28006KT P6SM SCT020 BKN100
      TEMPO 2115/2116 BKN018
     FM211630 32008KT P6SM SCT020 SCT120
     FM212000 32012KT P6SM FEW250
     FM220200 31004KT P6SM SKC
     FM221500 34007KT P6SM FEW020=

USA.gov is the U.S. government's official web portal to all federal, state and local government web resources and services.